Time;durP1;ratioP1;P1;durP2;ratioP2;P2;SDS_P1;SDS_P2;PMS_P1;PMS_P2;Temp;Humidity;BMP_temperature;BMP_pressure;BME280_temperature;BME280_humidity;BME280_pressure;Samples;Min_cycle;Max_cycle;Signal;HPM_P1;HPM_P2
2022/06/22 00:01:05;;;;;;;5.57;1.83;;;14.50;99.90;;;;;;5039441;28;20048;-47
2022/06/22 00:03:33;;;;;;;4.97;2.28;;;14.50;99.90;;;;;;5033108;28;20030;-49
2022/06/22 00:06:00;;;;;;;2.53;1.95;;;14.40;99.90;;;;;;5023033;28;20037;-45
2022/06/22 00:08:31;;;;;;;4.40;2.33;;;14.40;99.90;;;;;;5038464;28;20057;-46
2022/06/22 00:11:10;;;;;;;4.32;2.22;;;14.30;99.90;;;;;;5035998;28;20037;-46
2022/06/22 00:13:36;;;;;;;3.45;1.60;;;14.20;99.90;;;;;;5039603;28;20072;-47
2022/06/22 00:16:05;;;;;;;4.85;1.83;;;14.20;99.90;;;;;;5040357;28;20076;-46
2022/06/22 00:18:39;;;;;;;4.10;2.05;;;14.20;99.90;;;;;;5038231;28;20060;-48
2022/06/22 00:21:15;;;;;;;3.78;1.98;;;14.10;99.90;;;;;;5021188;28;20044;-45
2022/06/22 00:23:45;;;;;;;2.60;1.70;;;14.10;99.90;;;;;;5038145;28;20044;-46
2022/06/22 00:26:26;;;;;;;3.97;1.80;;;14.00;99.90;;;;;;5037023;28;20049;-45
2022/06/22 00:29:15;;;;;;;3.00;1.70;;;14.00;99.90;;;;;;5037661;28;20103;-47
2022/06/22 00:31:49;;;;;;;3.08;1.63;;;14.00;99.90;;;;;;5015850;28;20042;-44
2022/06/22 00:34:23;;;;;;;3.00;1.98;;;14.00;99.90;;;;;;5034499;28;20148;-45
2022/06/22 00:36:54;;;;;;;3.33;1.50;;;13.90;99.90;;;;;;5033942;28;20037;-45
2022/06/22 00:39:26;;;;;;;4.00;2.63;;;13.90;99.90;;;;;;5052261;28;20298;-47
2022/06/22 00:42:14;;;;;;;3.33;1.60;;;13.80;99.90;;;;;;5040538;28;20064;-46
2022/06/22 00:44:43;;;;;;;5.63;1.80;;;13.80;99.90;;;;;;5044489;28;20230;-45
2022/06/22 00:47:45;;;;;;;4.25;1.70;;;13.80;99.90;;;;;;5039635;28;20076;-47
2022/06/22 00:50:20;;;;;;;3.92;2.30;;;13.80;99.90;;;;;;5057428;28;20037;-45
2022/06/22 00:52:50;;;;;;;3.30;2.22;;;13.70;99.90;;;;;;5038661;28;20096;-50
2022/06/22 00:55:33;;;;;;;3.22;1.90;;;13.60;99.90;;;;;;5020517;28;20116;-48
2022/06/22 00:58:07;;;;;;;4.82;3.08;;;13.60;99.90;;;;;;5056948;28;20565;-45
2022/06/22 01:00:37;;;;;;;5.05;2.45;;;13.60;99.90;;;;;;5042040;28;20111;-47
2022/06/22 01:03:17;;;;;;;3.33;2.35;;;13.50;99.90;;;;;;5038887;28;20042;-47
2022/06/22 01:05:56;;;;;;;4.63;2.85;;;13.50;99.90;;;;;;5036930;28;20052;-45
2022/06/22 01:08:48;;;;;;;3.60;1.88;;;13.40;99.90;;;;;;5034915;28;20115;-46
2022/06/22 01:14:43;;;;;;;4.50;2.92;;;13.30;99.90;;;;;;5059412;28;20396;-46
2022/06/22 01:17:18;;;;;;;5.45;2.53;;;13.40;99.90;;;;;;5040478;28;20041;-47
2022/06/22 01:20:09;;;;;;;4.07;2.42;;;13.30;99.90;;;;;;5043796;28;20615;-45
2022/06/22 01:22:54;;;;;;;4.63;2.70;;;13.30;99.90;;;;;;5035744;28;20052;-46
2022/06/22 01:25:37;;;;;;;4.82;2.65;;;13.20;99.90;;;;;;5040784;28;20119;-46
2022/06/22 01:28:05;;;;;;;2.85;1.40;;;13.20;99.90;;;;;;5039527;28;20120;-47
2022/06/22 01:30:41;;;;;;;4.53;2.60;;;13.10;99.90;;;;;;5037153;28;20045;-49
2022/06/22 01:33:32;;;;;;;4.63;2.08;;;13.20;99.90;;;;;;5059691;28;20045;-46
2022/06/22 01:36:01;;;;;;;3.42;1.80;;;13.10;99.90;;;;;;5059057;28;20033;-47
2022/06/22 01:38:30;;;;;;;3.85;1.60;;;13.10;99.90;;;;;;5043665;28;20037;-45
2022/06/22 01:41:05;;;;;;;5.05;2.25;;;13.10;99.90;;;;;;5046109;28;20044;-47
2022/06/22 01:43:54;;;;;;;4.97;1.92;;;13.00;99.90;;;;;;5024590;28;20050;-45
2022/06/22 01:46:39;;;;;;;5.85;2.83;;;13.10;99.90;;;;;;5041177;28;20053;-47
2022/06/22 01:49:13;;;;;;;2.63;1.42;;;13.00;99.90;;;;;;5041214;28;20561;-46
2022/06/22 01:51:47;;;;;;;4.85;1.77;;;13.00;99.90;;;;;;5062490;28;20026;-46
2022/06/22 01:54:25;;;;;;;4.35;1.92;;;13.00;99.90;;;;;;5037530;28;20033;-46
2022/06/22 01:57:00;;;;;;;3.13;1.88;;;13.00;99.90;;;;;;5041404;28;20069;-47
2022/06/22 01:59:34;;;;;;;4.85;1.92;;;12.90;99.90;;;;;;5044363;28;20124;-47
2022/06/22 02:02:01;;;;;;;2.50;1.48;;;13.00;99.90;;;;;;5043718;28;20040;-48
2022/06/22 02:04:40;;;;;;;3.72;1.58;;;12.90;99.90;;;;;;5036278;28;20379;-45
2022/06/22 02:10:26;;;;;;;3.70;2.00;;;12.90;99.90;;;;;;5041736;28;20076;-46
2022/06/22 02:13:07;;;;;;;3.17;1.90;;;12.90;99.90;;;;;;5035955;28;20092;-49
2022/06/22 02:15:39;;;;;;;3.63;1.90;;;12.80;99.90;;;;;;5041641;28;20049;-48
2022/06/22 02:18:11;;;;;;;3.55;1.70;;;12.80;99.90;;;;;;5040006;28;20044;-46
2022/06/22 02:20:38;;;;;;;3.42;1.73;;;12.80;99.90;;;;;;5035600;28;20534;-46
2022/06/22 02:23:16;;;;;;;6.00;2.03;;;12.80;99.90;;;;;;5038686;28;20041;-48
2022/06/22 02:25:56;;;;;;;3.55;1.92;;;12.80;99.90;;;;;;5040438;28;20116;-47
2022/06/22 02:28:22;;;;;;;3.55;1.50;;;12.70;99.90;;;;;;5036346;28;20045;-48
2022/06/22 02:30:48;;;;;;;3.58;2.20;;;12.70;99.90;;;;;;5042484;28;20041;-49
2022/06/22 02:33:15;;;;;;;3.72;1.60;;;12.70;99.90;;;;;;5039613;28;20040;-47
2022/06/22 02:35:42;;;;;;;2.72;1.48;;;12.70;99.90;;;;;;5041274;28;20047;-50
2022/06/22 02:38:10;;;;;;;4.63;2.08;;;12.70;99.90;;;;;;5040412;28;20091;-47
2022/06/22 02:46:13;;;;;;;2.30;1.58;;;12.60;99.90;;;;;;5031661;28;20052;-48
2022/06/22 02:48:41;;;;;;;2.50;1.60;;;12.60;99.90;;;;;;5040975;28;20045;-47
2022/06/22 02:51:36;;;;;;;2.67;2.28;;;12.60;99.90;;;;;;5036209;28;20038;-48
2022/06/22 02:54:05;;;;;;;3.53;2.30;;;12.60;99.90;;;;;;5036699;28;20171;-48
2022/06/22 02:56:39;;;;;;;3.20;1.42;;;12.50;99.90;;;;;;5033930;28;20029;-50
2022/06/22 02:59:07;;;;;;;3.05;2.05;;;12.50;99.90;;;;;;5042038;28;20051;-48
2022/06/22 03:01:35;;;;;;;2.53;2.33;;;12.50;99.90;;;;;;5034288;28;20045;-48
2022/06/22 03:04:07;;;;;;;5.07;2.90;;;12.50;99.90;;;;;;5042191;28;20517;-49
2022/06/22 03:06:37;;;;;;;4.30;2.00;;;12.50;99.90;;;;;;5040722;28;20049;-47
2022/06/22 03:09:05;;;;;;;2.65;1.70;;;12.40;99.90;;;;;;5041295;28;20041;-47
2022/06/22 03:11:32;;;;;;;4.75;2.67;;;12.40;99.90;;;;;;5041637;28;20037;-47
2022/06/22 03:14:30;;;;;;;3.00;2.50;;;12.50;99.90;;;;;;5043941;28;20044;-47
2022/06/22 03:17:10;;;;;;;3.15;1.75;;;12.40;99.90;;;;;;5033346;28;20037;-47
2022/06/22 03:19:44;;;;;;;2.80;2.03;;;12.40;99.90;;;;;;5039154;28;20045;-45
2022/06/22 03:22:26;;;;;;;3.30;1.58;;;12.40;99.90;;;;;;5038347;28;20040;-44
2022/06/22 03:25:05;;;;;;;3.60;1.90;;;12.40;99.90;;;;;;5035021;28;20037;-46
2022/06/22 03:27:35;;;;;;;4.07;2.42;;;12.40;99.90;;;;;;5031980;28;20048;-45
2022/06/22 03:30:32;;;;;;;3.97;2.20;;;12.40;99.90;;;;;;5043942;28;20493;-47
2022/06/22 03:33:00;;;;;;;5.25;2.20;;;12.40;99.90;;;;;;5056051;28;20057;-46
2022/06/22 03:35:33;;;;;;;4.47;2.80;;;12.40;99.90;;;;;;5041561;28;20068;-48
2022/06/22 03:38:10;;;;;;;5.13;1.98;;;12.40;99.90;;;;;;5042136;28;20134;-45
2022/06/22 03:40:42;;;;;;;3.17;1.83;;;12.40;99.90;;;;;;5044037;28;20399;-44
2022/06/22 03:43:18;;;;;;;3.85;1.58;;;12.40;99.90;;;;;;5039367;28;20068;-46
2022/06/22 03:45:49;;;;;;;3.78;1.83;;;12.40;99.90;;;;;;5038964;28;20055;-46
2022/06/22 03:48:22;;;;;;;3.53;2.33;;;12.40;99.90;;;;;;5036677;28;20060;-45
2022/06/22 03:50:53;;;;;;;;;;;12.40;99.90;;;;;;5037573;28;20073;-46
2022/06/22 03:53:45;;;;;;;2.97;2.08;;;12.40;99.90;;;;;;5041206;28;20374;-44
2022/06/22 03:56:19;;;;;;;3.10;1.70;;;12.40;99.90;;;;;;5037848;28;20128;-45
2022/06/22 03:58:47;;;;;;;3.58;2.75;;;12.40;99.90;;;;;;5039040;28;20483;-46
2022/06/22 04:01:14;;;;;;;2.88;2.38;;;12.40;99.90;;;;;;5038173;28;20123;-44
2022/06/22 04:03:41;;;;;;;4.22;2.10;;;12.40;99.90;;;;;;5037174;28;20049;-46
2022/06/22 04:06:07;;;;;;;3.03;1.98;;;12.40;99.90;;;;;;5026885;28;20045;-45
2022/06/22 04:08:40;;;;;;;3.78;2.05;;;12.40;99.90;;;;;;5038729;28;20107;-45
2022/06/22 04:11:31;;;;;;;3.13;2.00;;;12.50;99.90;;;;;;5039184;28;20060;-46
2022/06/22 04:14:17;;;;;;;2.58;1.70;;;12.40;99.90;;;;;;5035861;28;20044;-47
2022/06/22 04:16:48;;;;;;;2.33;1.65;;;12.40;99.90;;;;;;5037554;28;20076;-48
2022/06/22 04:19:29;;;;;;;3.08;2.17;;;12.40;99.90;;;;;;5037412;28;20543;-44
2022/06/22 04:22:20;;;;;;;4.28;1.70;;;12.40;99.90;;;;;;5040809;28;20109;-45
2022/06/22 04:24:54;;;;;;;4.70;2.08;;;12.50;99.90;;;;;;5038951;28;20049;-46
2022/06/22 04:27:25;;;;;;;3.35;1.40;;;12.50;99.90;;;;;;5065089;28;20053;-45
2022/06/22 04:30:06;;;;;;;2.35;1.85;;;12.50;99.90;;;;;;5043875;28;20120;-49
2022/06/22 04:32:51;;;;;;;1.63;1.02;;;12.50;99.90;;;;;;5040257;28;20048;-46
2022/06/22 04:36:11;;;;;;;2.55;1.20;;;12.50;99.90;;;;;;5042814;28;20037;-48
2022/06/22 04:38:39;;;;;;;2.60;1.10;;;12.50;99.90;;;;;;5013702;28;20053;-45
2022/06/22 04:41:29;;;;;;;3.00;1.00;;;12.60;99.90;;;;;;5049771;28;20044;-48
2022/06/22 04:43:57;;;;;;;1.48;0.90;;;12.60;99.90;;;;;;5041701;28;20116;-45
2022/06/22 04:46:29;;;;;;;2.33;1.13;;;12.60;99.90;;;;;;5044117;28;20068;-46
2022/06/22 04:49:01;;;;;;;3.30;1.23;;;12.70;99.90;;;;;;5039577;28;20045;-45
2022/06/22 04:51:33;;;;;;;2.28;0.95;;;12.70;99.90;;;;;;5054535;28;20041;-48
2022/06/22 04:54:26;;;;;;;2.80;1.30;;;12.80;99.90;;;;;;5043579;28;20114;-45
2022/06/22 04:56:53;;;;;;;2.03;1.20;;;12.80;99.90;;;;;;5038654;28;20044;-46
2022/06/22 04:59:21;;;;;;;1.67;1.13;;;12.80;99.90;;;;;;5038488;28;20079;-49
2022/06/22 05:01:56;;;;;;;2.15;1.55;;;12.80;99.90;;;;;;5040923;28;20124;-47
2022/06/22 05:04:30;;;;;;;2.45;1.40;;;12.90;99.90;;;;;;5044535;28;20085;-48
2022/06/22 05:07:23;;;;;;;1.88;1.27;;;12.90;99.90;;;;;;5045275;28;20103;-47
2022/06/22 05:09:56;;;;;;;2.03;1.23;;;12.90;99.90;;;;;;5041276;28;20450;-47
2022/06/22 05:12:26;;;;;;;2.20;1.52;;;12.90;99.90;;;;;;5041138;28;20052;-45
2022/06/22 05:14:55;;;;;;;4.82;2.38;;;13.00;99.90;;;;;;5055194;28;20056;-45
2022/06/22 05:17:31;;;;;;;4.35;2.83;;;13.00;99.90;;;;;;5039795;28;20201;-47
2022/06/22 05:20:23;;;;;;;3.10;2.00;;;13.10;99.90;;;;;;5038992;28;20037;-46
2022/06/22 05:22:52;;;;;;;2.90;1.60;;;13.30;99.90;;;;;;5042121;28;20491;-46
2022/06/22 05:25:18;;;;;;;6.20;2.40;;;14.10;99.90;;;;;;5037972;28;20037;-46
2022/06/22 05:28:07;;;;;;;2.42;1.50;;;15.20;99.90;;;;;;5031376;28;20045;-47
2022/06/22 05:30:39;;;;;;;5.03;1.90;;;16.50;99.90;;;;;;5054850;28;20765;-47
2022/06/22 05:33:10;;;;;;;2.50;1.70;;;17.00;99.90;;;;;;5030584;28;20087;-48
2022/06/22 05:35:42;;;;;;;2.88;1.65;;;16.90;99.90;;;;;;5039266;28;20372;-46
2022/06/22 05:38:10;;;;;;;2.92;1.60;;;17.00;99.90;;;;;;5050154;28;20110;-46
2022/06/22 05:40:38;;;;;;;3.10;1.50;;;17.20;99.90;;;;;;5036968;28;20048;-46
2022/06/22 05:43:07;;;;;;;3.08;1.60;;;17.50;99.90;;;;;;5040952;28;20509;-50
2022/06/22 05:45:44;;;;;;;2.53;1.45;;;17.70;99.90;;;;;;5040968;28;20032;-46
2022/06/22 05:48:15;;;;;;;3.20;1.63;;;17.80;99.90;;;;;;5032627;28;20553;-46
2022/06/22 05:51:01;;;;;;;3.97;1.83;;;17.70;99.90;;;;;;5037702;28;20083;-49
2022/06/22 05:53:33;;;;;;;3.30;1.50;;;17.50;99.90;;;;;;5037545;28;20139;-45
2022/06/22 05:56:08;;;;;;;3.08;1.70;;;17.40;99.90;;;;;;5032001;28;20034;-46
2022/06/22 05:58:38;;;;;;;5.10;1.83;;;17.20;99.90;;;;;;5033199;28;20076;-48
2022/06/22 06:01:14;;;;;;;3.53;1.48;;;17.20;99.90;;;;;;5043032;28;20045;-48
2022/06/22 06:03:49;;;;;;;3.63;1.65;;;17.10;99.90;;;;;;5031916;28;20049;-48
2022/06/22 06:06:21;;;;;;;3.55;1.50;;;17.00;99.90;;;;;;5026825;28;20039;-45
2022/06/22 06:08:57;;;;;;;2.80;1.63;;;16.90;99.90;;;;;;5035058;28;20049;-46
2022/06/22 06:11:33;;;;;;;4.22;1.88;;;16.80;99.90;;;;;;5046391;28;20045;-45
2022/06/22 06:14:03;;;;;;;4.00;1.38;;;16.70;99.90;;;;;;5031887;28;20059;-47
2022/06/22 06:16:51;;;;;;;3.38;1.60;;;16.70;99.90;;;;;;5016703;28;20041;-44
2022/06/22 06:19:21;;;;;;;3.80;1.40;;;16.70;99.90;;;;;;5034441;28;20075;-44
2022/06/22 06:21:53;;;;;;;3.80;1.67;;;16.70;99.90;;;;;;5032002;28;20034;-46
2022/06/22 06:24:27;;;;;;;3.78;1.50;;;16.70;99.90;;;;;;5029861;28;20392;-49
2022/06/22 06:30:03;;;;;;;4.97;1.90;;;16.80;99.90;;;;;;5033207;28;20081;-46
2022/06/22 06:32:36;;;;;;;4.50;1.80;;;16.80;99.90;;;;;;5042506;28;20391;-48
2022/06/22 06:35:18;;;;;;;5.15;1.60;;;16.90;99.90;;;;;;5029342;28;20049;-47
2022/06/22 06:38:11;;;;;;;4.03;1.60;;;16.90;99.90;;;;;;5048320;28;20029;-45
2022/06/22 06:40:47;;;;;;;4.60;1.77;;;16.90;99.90;;;;;;5048479;28;20076;-48
2022/06/22 06:43:21;;;;;;;5.50;1.50;;;16.90;99.90;;;;;;5040596;28;20040;-50
2022/06/22 06:45:48;;;;;;;4.18;1.25;;;17.00;99.90;;;;;;5031302;28;20076;-49
2022/06/22 06:48:18;;;;;;;6.53;1.70;;;17.10;99.90;;;;;;5034949;28;20041;-47
2022/06/22 06:50:51;;;;;;;6.82;1.52;;;17.20;99.90;;;;;;5035635;28;20036;-49
2022/06/22 06:53:28;;;;;;;5.78;1.50;;;17.30;99.90;;;;;;5048787;28;20257;-47
2022/06/22 06:56:03;;;;;;;5.47;1.60;;;17.30;99.90;;;;;;5026587;28;20075;-46
2022/06/22 06:58:35;;;;;;;3.03;1.23;;;17.40;99.90;;;;;;5035414;28;20052;-46
2022/06/22 07:01:02;;;;;;;6.17;1.60;;;17.50;99.90;;;;;;5038182;28;20076;-46
2022/06/22 07:03:34;;;;;;;5.88;1.60;;;17.50;99.90;;;;;;5039972;28;20431;-48
2022/06/22 07:06:03;;;;;;;5.28;1.52;;;17.60;99.90;;;;;;5031787;28;20026;-46
2022/06/22 07:08:35;;;;;;;8.15;1.85;;;17.70;99.90;;;;;;5013319;28;20053;-46
2022/06/22 07:11:03;;;;;;;5.13;1.75;;;17.80;99.90;;;;;;5029624;28;20051;-46
2022/06/22 07:13:35;;;;;;;4.55;1.63;;;17.80;99.90;;;;;;5033803;28;20044;-47
2022/06/22 07:16:06;;;;;;;5.00;1.23;;;17.90;99.90;;;;;;5044830;28;20060;-49
2022/06/22 07:18:36;;;;;;;4.75;1.30;;;17.90;99.90;;;;;;5036937;28;20056;-47
2022/06/22 07:21:24;;;;;;;4.85;1.40;;;18.00;99.90;;;;;;5016352;28;20041;-48
2022/06/22 07:23:49;;;;;;;5.70;1.45;;;18.10;99.90;;;;;;5030352;28;20046;-48
2022/06/22 07:26:25;;;;;;;6.63;1.95;;;18.20;99.90;;;;;;5038423;28;20045;-47
2022/06/22 07:29:01;;;;;;;;;;;18.30;99.90;;;;;;5039153;28;20049;-47
2022/06/22 07:31:42;;;;;;;4.90;1.63;;;18.30;99.90;;;;;;5036696;28;19936;-46
2022/06/22 07:34:19;;;;;;;6.38;1.40;;;18.40;99.90;;;;;;5039757;28;20107;-47
2022/06/22 07:36:54;;;;;;;8.82;1.95;;;18.50;99.90;;;;;;5034856;28;20543;-47
2022/06/22 07:39:42;;;;;;;5.70;1.40;;;18.60;99.90;;;;;;5034320;28;20453;-49
2022/06/22 07:42:12;;;;;;;6.00;1.50;;;18.70;99.90;;;;;;5034971;28;20399;-47
2022/06/22 07:44:38;;;;;;;6.70;1.52;;;18.80;99.90;;;;;;5037608;28;20488;-46
2022/06/22 07:47:21;;;;;;;6.25;1.67;;;18.90;99.90;;;;;;5034739;28;20049;-50
2022/06/22 07:50:07;;;;;;;5.60;1.60;;;18.90;99.90;;;;;;5036115;28;20159;-47
2022/06/22 07:52:40;;;;;;;36.78;5.65;;;19.00;99.90;;;;;;5011887;28;20059;-49
2022/06/22 07:55:31;;;;;;;32.63;4.50;;;19.10;99.90;;;;;;5035891;28;20387;-45
2022/06/22 07:58:19;;;;;;;54.00;6.90;;;19.20;99.90;;;;;;5047914;28;20392;-46
2022/06/22 08:00:48;;;;;;;38.03;4.85;;;19.30;99.90;;;;;;5036592;28;20041;-47
2022/06/22 08:03:24;;;;;;;44.97;6.57;;;19.40;99.90;;;;;;5035390;28;20048;-47
2022/06/22 08:05:53;;;;;;;34.92;5.28;;;19.50;99.90;;;;;;5040284;28;20037;-46
2022/06/22 08:08:31;;;;;;;40.55;7.07;;;19.50;99.90;;;;;;5038541;28;20411;-48
2022/06/22 08:11:07;;;;;;;36.35;5.65;;;19.60;99.90;;;;;;5036619;28;20045;-45
2022/06/22 08:13:39;;;;;;;29.50;5.00;;;19.70;99.90;;;;;;5044655;28;20120;-49
2022/06/22 08:16:20;;;;;;;27.92;4.88;;;19.80;99.90;;;;;;5032729;28;20040;-47
2022/06/22 08:18:46;;;;;;;20.38;3.60;;;19.90;99.90;;;;;;5045167;28;20072;-49
2022/06/22 08:21:17;;;;;;;15.73;3.67;;;19.90;99.90;;;;;;5042555;28;20053;-47
2022/06/22 08:23:44;;;;;;;31.55;4.55;;;20.10;99.90;;;;;;5034448;28;20143;-47
2022/06/22 08:26:18;;;;;;;123.63;15.32;;;20.10;99.90;;;;;;5047948;28;20054;-47
2022/06/22 08:28:44;;;;;;;73.97;9.73;;;20.20;99.90;;;;;;5049929;28;20401;-47
2022/06/22 08:31:11;;;;;;;39.53;5.57;;;20.20;99.90;;;;;;5035875;28;20045;-46
2022/06/22 08:33:47;;;;;;;25.92;5.28;;;20.30;99.90;;;;;;5018231;28;20045;-49
2022/06/22 08:36:30;;;;;;;29.80;4.60;;;20.40;99.90;;;;;;5037512;28;20037;-49
2022/06/22 08:39:18;;;;;;;19.17;3.92;;;20.50;99.90;;;;;;5038789;28;20045;-48
2022/06/22 08:42:13;;;;;;;14.18;3.28;;;20.60;99.90;;;;;;5054941;28;20387;-48
2022/06/22 08:45:01;;;;;;;11.73;2.83;;;20.60;99.90;;;;;;5041388;28;20045;-49
2022/06/22 08:47:46;;;;;;;14.40;3.38;;;20.70;99.90;;;;;;5035744;28;20407;-46
2022/06/22 08:50:41;;;;;;;9.90;2.63;;;20.80;99.90;;;;;;5054919;28;20094;-49
2022/06/22 08:53:26;;;;;;;10.25;2.42;;;20.90;99.90;;;;;;5013492;28;20114;-47
2022/06/22 08:56:19;;;;;;;13.27;2.90;;;21.00;99.90;;;;;;5048515;28;20514;-48
2022/06/22 08:59:13;;;;;;;9.98;2.45;;;21.10;99.90;;;;;;5036192;28;20041;-49
2022/06/22 09:01:40;;;;;;;11.40;2.22;;;21.20;99.90;;;;;;5036488;28;20054;-48
2022/06/22 09:04:21;;;;;;;9.98;2.60;;;21.20;99.90;;;;;;5035212;28;20049;-47
2022/06/22 09:07:09;;;;;;;11.32;2.83;;;21.30;99.90;;;;;;5049956;28;20033;-47
2022/06/22 09:09:56;;;;;;;8.55;3.28;;;21.40;99.90;;;;;;5039187;28;20037;-47
2022/06/22 09:12:49;;;;;;;7.22;2.30;;;21.50;99.90;;;;;;5043410;28;20057;-47
2022/06/22 09:15:27;;;;;;;;;;;21.60;99.90;;;;;;5041498;28;20033;-46
2022/06/22 09:18:32;;;;;;;9.88;2.55;;;21.60;99.90;;;;;;5043119;28;19917;-51
2022/06/22 09:21:30;;;;;;;8.82;2.65;;;21.70;99.90;;;;;;5040505;28;20290;-46
2022/06/22 09:24:22;;;;;;;43.15;6.70;;;21.80;99.90;;;;;;5035371;28;20025;-50
2022/06/22 09:27:07;;;;;;;45.10;5.97;;;21.90;99.90;;;;;;5034173;28;20033;-46
2022/06/22 09:30:00;;;;;;;71.63;8.77;;;22.00;99.90;;;;;;5034605;28;20034;-50
2022/06/22 09:33:05;;;;;;;54.13;8.00;;;22.10;99.90;;;;;;5053344;28;20048;-49
2022/06/22 09:35:36;;;;;;;37.65;5.88;;;22.20;99.90;;;;;;5038438;28;20037;-45
2022/06/22 09:38:41;;;;;;;27.30;5.15;;;22.20;99.90;;;;;;5021730;28;20046;-46
2022/06/22 09:41:09;;;;;;;33.80;6.07;;;22.30;99.90;;;;;;5038259;28;20037;-44
2022/06/22 09:43:51;;;;;;;26.85;4.65;;;22.30;99.90;;;;;;5047944;28;20044;-44
2022/06/22 09:46:38;;;;;;;38.53;6.97;;;22.40;99.90;;;;;;5058394;28;20499;-44
2022/06/22 09:49:22;;;;;;;34.72;5.93;;;22.50;99.90;;;;;;5041411;28;20045;-45
2022/06/22 09:51:50;;;;;;;27.95;5.03;;;22.50;99.90;;;;;;5039516;28;20149;-44
2022/06/22 09:57:30;;;;;;;18.67;4.05;;;22.70;99.90;;;;;;5040285;28;20192;-46
2022/06/22 10:00:09;;;;;;;24.45;3.60;;;22.70;99.90;;;;;;5047564;28;20036;-45
2022/06/22 10:03:05;;;;;;;37.28;4.80;;;22.80;99.90;;;;;;5046070;28;20041;-44
2022/06/22 10:06:02;;;;;;;21.98;3.88;;;22.90;99.90;;;;;;5039037;28;20067;-47
2022/06/22 10:08:45;;;;;;;16.00;3.35;;;23.00;99.90;;;;;;5039247;28;20117;-44
2022/06/22 10:11:28;;;;;;;12.07;3.23;;;23.00;99.90;;;;;;5035685;28;20249;-46
2022/06/22 10:14:12;;;;;;;;;;;23.10;99.90;;;;;;5052475;28;20033;-44
2022/06/22 10:16:45;;;;;;;7.38;3.00;;;23.10;99.90;;;;;;5037562;28;20356;-44
2022/06/22 10:19:26;;;;;;;8.40;3.03;;;23.20;99.90;;;;;;5035376;28;20352;-44
2022/06/22 10:21:57;;;;;;;8.80;2.95;;;23.20;99.90;;;;;;5020408;28;20037;-46
2022/06/22 10:24:57;;;;;;;7.50;2.40;;;23.30;99.90;;;;;;5043949;28;20060;-48
2022/06/22 10:27:34;;;;;;;8.18;2.60;;;23.40;99.90;;;;;;5044602;28;20071;-45
2022/06/22 10:30:28;;;;;;;8.52;2.53;;;23.50;99.90;;;;;;5044099;28;20045;-47
2022/06/22 10:33:05;;;;;;;;;;;23.50;99.90;;;;;;5041261;28;20039;-45
2022/06/22 10:36:05;;;;;;;9.57;2.67;;;23.60;99.90;;;;;;5043089;28;19917;-48
2022/06/22 10:38:50;;;;;;;6.75;2.30;;;23.60;99.90;;;;;;5041692;28;20046;-46
2022/06/22 10:47:44;;;;;;;7.47;2.25;;;23.80;99.90;;;;;;5051376;28;20072;-46
2022/06/22 10:50:38;;;;;;;7.43;2.50;;;23.90;99.90;;;;;;5036453;28;20052;-44
2022/06/22 10:53:13;;;;;;;5.55;2.10;;;24.00;99.90;;;;;;5043028;28;20044;-44
2022/06/22 10:55:50;;;;;;;8.73;2.20;;;24.00;99.90;;;;;;5040443;28;20073;-44
2022/06/22 10:58:35;;;;;;;7.57;2.50;;;24.00;99.90;;;;;;5035518;28;20037;-44
2022/06/22 11:01:28;;;;;;;8.43;2.28;;;24.10;99.90;;;;;;5034169;28;20182;-46
2022/06/22 11:04:16;;;;;;;8.45;2.75;;;24.20;99.90;;;;;;5058610;28;20033;-44
2022/06/22 11:06:56;;;;;;;6.97;2.00;;;24.30;99.90;;;;;;5037815;28;20037;-44
2022/06/22 11:09:34;;;;;;;7.97;1.92;;;24.30;99.90;;;;;;5039553;28;20045;-44
2022/06/22 11:12:29;;;;;;;5.90;2.25;;;24.40;99.90;;;;;;5038711;28;20166;-45
2022/06/22 11:15:24;;;;;;;8.88;2.35;;;24.40;99.90;;;;;;5031467;28;20510;-45
2022/06/22 11:18:09;;;;;;;7.82;2.10;;;24.50;99.90;;;;;;5054967;28;20045;-45
2022/06/22 11:21:01;;;;;;;7.47;1.95;;;24.50;99.90;;;;;;5032435;28;20041;-45
2022/06/22 11:23:45;;;;;;;6.80;2.10;;;24.60;99.90;;;;;;5037217;28;20045;-46
2022/06/22 11:32:29;;;;;;;6.28;1.80;;;24.70;99.90;;;;;;5050887;28;20050;-44
2022/06/22 11:35:17;;;;;;;5.65;1.95;;;24.80;99.90;;;;;;5030701;28;20073;-45
2022/06/22 11:37:59;;;;;;;6.55;2.00;;;24.80;99.90;;;;;;5041206;28;20036;-46
2022/06/22 11:40:51;;;;;;;6.10;2.10;;;24.80;99.90;;;;;;5042752;28;20111;-45
2022/06/22 11:43:31;;;;;;;10.23;2.20;;;24.80;98.30;;;;;;5038713;28;20037;-46
2022/06/22 11:46:30;;;;;;;5.18;1.50;;;24.80;99.40;;;;;;5041728;28;20049;-48
2022/06/22 11:49:30;;;;;;;7.18;1.75;;;24.90;99.00;;;;;;5036740;28;20494;-47
2022/06/22 11:52:13;;;;;;;4.90;1.48;;;24.90;97.80;;;;;;5031831;28;20045;-47
2022/06/22 11:54:51;;;;;;;8.13;1.58;;;25.00;96.70;;;;;;5052211;28;20046;-46
2022/06/22 11:57:54;;;;;;;5.18;1.70;;;25.00;95.50;;;;;;5043479;28;20044;-47
2022/06/22 12:00:59;;;;;;;4.28;1.52;;;25.20;95.80;;;;;;5039430;28;20041;-46
2022/06/22 12:03:39;;;;;;;7.68;1.80;;;25.20;96.00;;;;;;5027493;28;20064;-46
2022/06/22 12:06:24;;;;;;;7.43;1.42;;;25.30;95.60;;;;;;5042849;28;20391;-49
2022/06/22 12:09:14;;;;;;;5.60;1.80;;;25.30;94.20;;;;;;5039890;28;20048;-47
2022/06/22 12:11:58;;;;;;;6.60;1.45;;;25.40;94.30;;;;;;5046899;28;20121;-46
2022/06/22 12:17:33;;;;;;;;;;;25.40;92.50;;;;;;5054299;28;20502;-49
2022/06/22 12:20:25;;;;;;;6.88;1.65;;;25.50;93.80;;;;;;5044531;28;19917;-46
2022/06/22 12:23:14;;;;;;;5.53;1.42;;;25.50;92.50;;;;;;5038526;28;20041;-48
2022/06/22 12:26:08;;;;;;;13.30;2.05;;;25.60;91.90;;;;;;5033104;28;20052;-47
2022/06/22 12:28:42;;;;;;;6.30;1.38;;;25.70;92.50;;;;;;5033015;28;20132;-46
2022/06/22 12:31:19;;;;;;;7.72;1.50;;;25.70;91.40;;;;;;5049351;28;20041;-46
2022/06/22 12:33:52;;;;;;;7.57;1.60;;;25.80;90.70;;;;;;5034026;28;20395;-48
2022/06/22 12:36:24;;;;;;;6.82;1.80;;;25.80;90.10;;;;;;5037275;28;20045;-46
2022/06/22 12:38:58;;;;;;;6.60;1.60;;;25.90;89.70;;;;;;5037628;28;20131;-49
2022/06/22 12:42:00;;;;;;;5.22;1.30;;;25.90;89.10;;;;;;5041345;28;20045;-46
2022/06/22 12:44:45;;;;;;;5.25;1.38;;;26.00;89.50;;;;;;5038872;28;20041;-47
2022/06/22 12:47:29;;;;;;;9.45;1.80;;;26.00;90.10;;;;;;5038141;28;20053;-48
2022/06/22 12:50:26;;;;;;;5.35;1.52;;;26.00;89.70;;;;;;5044771;28;20053;-49
2022/06/22 12:52:58;;;;;;;9.10;1.25;;;26.10;89.60;;;;;;5035026;28;20041;-47
2022/06/22 12:55:29;;;;;;;;;;;26.20;89.20;;;;;;5045523;28;20133;-46
2022/06/22 12:58:03;;;;;;;8.55;1.40;;;26.20;90.10;;;;;;5030675;28;20007;-45
2022/06/22 13:00:28;;;;;;;5.80;1.30;;;26.20;89.60;;;;;;5040141;28;20045;-45
2022/06/22 13:02:58;;;;;;;6.82;1.60;;;26.30;89.60;;;;;;5039887;28;20159;-48
2022/06/22 13:05:29;;;;;;;9.27;1.02;;;26.30;88.10;;;;;;5043135;28;20554;-46
2022/06/22 13:08:20;;;;;;;5.55;1.40;;;26.40;90.10;;;;;;5042274;28;20045;-45
2022/06/22 13:10:49;;;;;;;7.20;1.52;;;26.50;89.10;;;;;;5038409;28;20063;-46
2022/06/22 13:13:34;;;;;;;7.82;1.63;;;26.50;90.30;;;;;;5025165;28;20033;-48
2022/06/22 13:16:35;;;;;;;8.10;1.42;;;26.50;90.40;;;;;;5042471;28;20033;-45
2022/06/22 13:19:21;;;;;;;7.55;1.58;;;26.60;91.00;;;;;;5038489;28;20091;-47
2022/06/22 13:22:13;;;;;;;6.63;1.50;;;26.60;90.90;;;;;;5057515;28;20052;-47
2022/06/22 13:24:57;;;;;;;7.97;1.63;;;26.70;91.20;;;;;;5035249;28;20399;-48
2022/06/22 13:28:08;;;;;;;6.47;1.17;;;26.70;91.10;;;;;;5044341;28;20511;-48
2022/06/22 13:30:47;;;;;;;11.85;1.58;;;26.70;90.00;;;;;;5046420;28;20033;-46
2022/06/22 13:33:22;;;;;;;11.68;1.58;;;26.70;90.50;;;;;;5044262;28;20043;-48
2022/06/22 13:36:14;;;;;;;5.78;1.33;;;26.80;90.50;;;;;;5043352;28;20047;-46
2022/06/22 13:38:56;;;;;;;7.20;1.33;;;26.80;90.50;;;;;;5033683;28;20464;-48
2022/06/22 13:41:31;;;;;;;5.77;1.37;;;26.80;89.70;;;;;;5041462;28;20041;-50
2022/06/22 13:44:37;;;;;;;5.32;1.25;;;26.80;89.00;;;;;;5056357;28;20056;-47
2022/06/22 13:47:27;;;;;;;5.43;1.05;;;26.90;89.70;;;;;;5038023;28;20057;-48
2022/06/22 13:50:16;;;;;;;6.88;1.27;;;26.90;89.40;;;;;;5034214;28;20045;-48
2022/06/22 13:52:47;;;;;;;7.18;1.42;;;27.00;87.00;;;;;;5031925;28;20044;-50
2022/06/22 13:55:45;;;;;;;7.00;1.55;;;27.00;88.10;;;;;;5038620;28;20349;-48
2022/06/22 13:58:24;;;;;;;9.43;1.33;;;27.00;86.40;;;;;;5026458;28;20045;-49
2022/06/22 14:00:57;;;;;;;7.80;1.65;;;27.00;87.10;;;;;;5038906;28;20042;-46
2022/06/22 14:03:28;;;;;;;7.43;1.52;;;27.00;86.40;;;;;;5034579;28;20408;-45
2022/06/22 14:06:15;;;;;;;8.73;1.58;;;27.00;85.50;;;;;;5036110;28;20123;-48
2022/06/22 14:09:07;;;;;;;9.15;1.52;;;27.00;86.20;;;;;;5054941;28;20048;-48
2022/06/22 14:11:56;;;;;;;5.28;1.17;;;27.00;87.20;;;;;;5057995;28;20030;-45
2022/06/22 14:14:43;;;;;;;4.90;1.42;;;27.00;85.50;;;;;;5038415;28;20128;-46
2022/06/22 14:17:19;;;;;;;6.93;1.52;;;27.00;85.60;;;;;;5035545;28;20041;-48
2022/06/22 14:20:02;;;;;;;7.60;1.50;;;27.00;85.00;;;;;;5056823;28;20140;-46
2022/06/22 14:22:36;;;;;;;;;;;27.00;85.50;;;;;;5040972;28;20037;-46